Time;durP1;ratioP1;P1;durP2;ratioP2;P2;SDS_P1;SDS_P2;PMS_P1;PMS_P2;Temp;Humidity;BMP_temperature;BMP_pressure;BME280_temperature;BME280_humidity;BME280_pressure;Samples;Min_cycle;Max_cycle;Signal;HPM_P1;HPM_P2
2023/10/15 00:00:52;;;;;;;11.48;5.45;;;;;;;17.79;73.13;98646.78;4437619;32;33716;-88
2023/10/15 00:03:20;;;;;;;9.10;5.20;;;;;;;17.81;72.71;98639.75;4437679;32;32900;-86
2023/10/15 00:05:48;;;;;;;8.25;5.15;;;;;;;17.67;73.00;98641.81;4437402;32;33787;-87
2023/10/15 00:08:15;;;;;;;6.90;4.00;;;;;;;17.83;72.67;98648.41;4452309;32;34083;-86
2023/10/15 00:10:43;;;;;;;8.15;3.85;;;;;;;17.34;73.88;98653.94;4452851;32;34269;-87
2023/10/15 00:13:11;;;;;;;6.90;3.30;;;;;;;17.78;70.71;98665.19;4453027;32;33424;-84
2023/10/15 00:15:39;;;;;;;6.78;2.83;;;;;;;17.34;71.67;98670.50;4452573;32;33634;-84
2023/10/15 00:18:09;;;;;;;8.35;2.75;;;;;;;17.20;71.99;98688.31;4452653;32;34129;-86
2023/10/15 00:20:40;;;;;;;8.25;2.47;;;;;;;17.14;71.57;98696.28;4438640;32;33796;-86
2023/10/15 00:23:09;;;;;;;7.15;2.45;;;;;;;17.23;71.25;98693.47;4452602;32;33158;-88
2023/10/15 00:25:38;;;;;;;5.20;2.95;;;;;;;16.92;72.92;98708.97;4450646;32;33825;-86
2023/10/15 00:28:09;;;;;;;6.47;2.75;;;;;;;17.07;72.63;98716.50;4454391;32;33783;-89
2023/10/15 00:30:39;;;;;;;4.95;2.72;;;;;;;16.78;74.25;98730.16;4452976;32;33306;-91
2023/10/15 00:33:16;;;;;;;6.53;3.20;;;;;;;16.87;73.96;98742.25;4451588;32;34286;-96
2023/10/15 00:35:50;;;;;;;7.10;3.12;;;;;;;16.88;73.99;98729.09;4451196;32;34528;-85
2023/10/15 00:38:19;;;;;;;4.35;2.35;;;;;;;16.84;74.79;98709.12;4446116;32;34620;-84
2023/10/15 00:40:51;;;;;;;4.57;2.50;;;;;;;16.61;74.87;98706.91;4435772;32;33767;-85
2023/10/15 00:43:21;;;;;;;5.90;2.50;;;;;;;17.00;73.32;98697.44;4441856;32;34214;-85
2023/10/15 00:45:51;;;;;;;5.15;2.25;;;;;;;16.69;73.48;98702.38;4448240;32;33612;-87
2023/10/15 00:48:36;;;;;;;5.68;2.45;;;;;;;16.48;75.11;98724.59;4445890;32;34127;-87
2023/10/15 00:51:11;;;;;;;6.68;2.20;;;;;;;16.66;74.83;98733.84;4447115;32;33737;-86
2023/10/15 00:53:50;;;;;;;6.90;2.20;;;;;;;16.82;73.05;98733.59;4423767;32;33546;-87
2023/10/15 00:56:22;;;;;;;3.60;1.73;;;;;;;16.93;73.00;98722.03;4436711;32;34237;-86
2023/10/15 01:01:26;;;;;;;3.83;1.60;;;;;;;16.61;72.55;98729.59;4451305;32;33885;-86
2023/10/15 01:03:56;;;;;;;3.90;1.50;;;;;;;16.71;73.17;98736.41;4449863;32;32625;-86
2023/10/15 01:09:20;;;;;;;3.55;1.40;;;;;;;16.48;73.21;98737.69;4442263;32;34870;-86
2023/10/15 01:11:55;;;;;;;6.35;1.42;;;;;;;16.80;71.36;98733.63;4438719;32;33629;-86
2023/10/15 01:14:44;;;;;;;4.40;1.25;;;;;;;16.91;71.68;98728.19;4449754;32;32802;-86
2023/10/15 01:17:11;;;;;;;2.75;1.00;;;;;;;16.56;72.66;98728.84;4439768;32;33836;-86
2023/10/15 01:19:39;;;;;;;2.17;0.80;;;;;;;16.82;69.95;98724.00;4435864;32;34104;-85
2023/10/15 01:22:09;;;;;;;4.30;0.90;;;;;;;16.47;71.46;98712.41;4435971;32;34452;-86
2023/10/15 01:24:38;;;;;;;2.67;0.80;;;;;;;16.39;72.46;98713.44;4442582;32;33552;-86
2023/10/15 01:27:11;;;;;;;2.45;0.90;;;;;;;16.26;72.87;98720.66;4446848;32;33780;-86
2023/10/15 01:29:44;;;;;;;2.10;0.80;;;;;;;16.16;73.08;98717.31;4438192;32;33825;-86
2023/10/15 01:32:30;;;;;;;3.83;0.73;;;;;;;16.14;72.94;98721.72;4434910;32;34146;-86
2023/10/15 01:35:00;;;;;;;2.28;0.80;;;;;;;16.37;72.05;98731.78;4447769;32;33141;-86
2023/10/15 01:37:30;;;;;;;2.92;1.00;;;;;;;16.42;71.64;98732.56;4439777;32;33519;-86
2023/10/15 01:40:01;;;;;;;3.30;0.77;;;;;;;15.92;73.47;98739.50;4436518;32;35196;-89
2023/10/15 01:50:31;;;;;;;3.17;0.90;;;;;;;16.28;73.33;98755.47;4434554;32;34833;-86
2023/10/15 01:53:04;;;;;;;2.35;0.88;;;;;;;16.43;73.00;98773.53;4443862;32;34011;-86
2023/10/15 01:55:35;;;;;;;2.30;1.20;;;;;;;16.32;73.38;98778.06;4449928;32;33178;-84
2023/10/15 01:58:05;;;;;;;3.17;1.20;;;;;;;16.45;73.10;98771.75;4435869;32;34411;-86
2023/10/15 02:00:34;;;;;;;2.05;0.93;;;;;;;16.65;72.38;98765.31;4435681;32;34146;-86
2023/10/15 02:03:02;;;;;;;4.07;1.20;;;;;;;16.60;72.37;98757.53;4436960;32;33865;-85
2023/10/15 02:05:42;;;;;;;2.92;1.00;;;;;;;16.36;73.21;98753.59;4445133;32;33016;-85
2023/10/15 02:08:24;;;;;;;3.40;1.25;;;;;;;16.80;71.76;98758.97;4448107;32;33654;-85
2023/10/15 02:10:52;;;;;;;2.22;1.05;;;;;;;16.56;72.77;98762.88;4439057;32;34263;-86
2023/10/15 02:13:28;;;;;;;2.35;1.02;;;;;;;16.69;72.65;98753.88;4443584;32;33491;-86
2023/10/15 02:15:55;;;;;;;2.65;1.10;;;;;;;16.57;73.42;98748.88;4436074;32;34385;-85
2023/10/15 02:18:29;;;;;;;3.05;1.65;;;;;;;16.30;74.34;98738.00;4444262;32;33453;-85
2023/10/15 02:23:25;;;;;;;3.17;1.40;;;;;;;16.49;73.82;98744.66;4451768;32;34704;-86
2023/10/15 02:25:57;;;;;;;2.08;1.20;;;;;;;16.38;74.19;98733.50;4451290;32;33525;-86
2023/10/15 02:28:32;;;;;;;2.80;1.23;;;;;;;16.23;74.23;98739.00;4451154;32;33676;-87
2023/10/15 02:33:38;;;;;;;3.97;1.45;;;;;;;16.20;74.32;98760.81;4449636;32;34460;-87
2023/10/15 02:36:09;;;;;;;3.80;1.37;;;;;;;16.00;75.90;98763.78;4451358;32;32881;-86
2023/10/15 02:38:38;;;;;;;2.78;1.20;;;;;;;16.33;74.35;98761.50;4451362;32;34987;-87
2023/10/15 02:41:06;;;;;;;2.22;1.02;;;;;;;16.33;74.57;98768.47;4450785;32;33746;-86
2023/10/15 02:43:46;;;;;;;3.87;1.37;;;;;;;16.27;75.18;98778.16;4449522;32;34591;-86
2023/10/15 02:46:24;;;;;;;3.25;1.33;;;;;;;16.45;74.46;98784.84;4450999;32;34092;-89
2023/10/15 02:48:53;;;;;;;5.57;1.77;;;;;;;16.17;74.85;98786.16;4450945;32;34637;-85
2023/10/15 02:51:25;;;;;;;2.45;1.40;;;;;;;16.30;74.49;98785.97;4450872;32;34149;-86
2023/10/15 02:53:54;;;;;;;4.95;1.85;;;;;;;16.27;74.68;98793.00;4451134;32;34519;-86
2023/10/15 02:56:23;;;;;;;3.67;1.65;;;;;;;16.27;74.61;98793.00;4449967;32;34411;-87
2023/10/15 02:58:51;;;;;;;2.78;1.48;;;;;;;16.26;74.39;98807.81;4449556;32;34113;-86
2023/10/15 03:01:19;;;;;;;3.72;1.80;;;;;;;15.81;76.10;98788.47;4450952;32;32923;-87
2023/10/15 03:03:52;;;;;;;3.83;1.98;;;;;;;15.98;75.74;98786.44;4450929;32;33912;-91
2023/10/15 03:06:27;;;;;;;4.93;1.75;;;;;;;15.91;76.16;98795.28;4429983;32;32517;-85
2023/10/15 03:08:56;;;;;;;4.37;2.12;;;;;;;15.69;75.67;98801.72;4434172;32;33755;-85
2023/10/15 03:11:25;;;;;;;7.57;2.60;;;;;;;15.86;75.50;98793.62;4435466;32;33817;-86
2023/10/15 03:13:53;;;;;;;3.35;1.98;;;;;;;15.79;75.96;98778.00;4435362;32;34749;-87
2023/10/15 03:16:35;;;;;;;5.35;2.15;;;;;;;15.66;76.22;98771.25;4441312;32;33359;-86
2023/10/15 03:19:17;;;;;;;4.12;2.35;;;;;;;15.88;75.17;98771.81;4442522;32;34768;-86
2023/10/15 03:21:45;;;;;;;10.25;2.78;;;;;;;15.58;76.63;98776.56;4434993;32;34250;-86
2023/10/15 03:24:17;;;;;;;4.28;2.33;;;;;;;15.48;76.16;98774.06;4434760;32;33564;-84
2023/10/15 03:26:48;;;;;;;4.32;2.00;;;;;;;15.62;76.10;98766.06;4435834;32;31879;-86
2023/10/15 03:29:16;;;;;;;4.95;2.35;;;;;;;15.48;75.83;98771.47;4446569;32;33789;-85
2023/10/15 03:31:48;;;;;;;4.65;2.60;;;;;;;15.55;75.97;98773.97;4441495;32;33785;-85
2023/10/15 03:34:21;;;;;;;4.90;2.85;;;;;;;15.67;75.76;98772.09;4447117;32;34377;-85
2023/10/15 03:36:50;;;;;;;4.05;2.47;;;;;;;15.53;75.79;98778.38;4448392;32;32645;-86
2023/10/15 03:44:49;;;;;;;5.37;2.70;;;;;;;15.79;75.57;98774.53;4449531;32;34014;-86
2023/10/15 03:47:22;;;;;;;4.10;2.50;;;;;;;15.64;75.75;98770.34;4449827;32;34125;-87
2023/10/15 03:49:55;;;;;;;6.10;2.80;;;;;;;15.65;75.12;98786.94;4443482;32;33944;-88
2023/10/15 03:52:23;;;;;;;5.50;3.12;;;;;;;15.40;75.84;98783.75;4451293;32;34772;-86
2023/10/15 03:54:51;;;;;;;6.53;3.12;;;;;;;15.36;76.59;98785.56;4452929;32;33640;-86
2023/10/15 03:57:23;;;;;;;6.82;2.87;;;;;;;15.26;76.93;98778.69;4436224;32;32785;-86
2023/10/15 03:59:52;;;;;;;4.97;2.83;;;;;;;15.27;76.30;98778.69;4437388;32;32700;-87
2023/10/15 04:02:22;;;;;;;5.32;2.65;;;;;;;15.18;75.68;98765.75;4444140;32;34296;-85
2023/10/15 04:05:00;;;;;;;5.78;3.37;;;;;;;14.95;75.65;98762.53;4452787;32;34474;-86
2023/10/15 04:07:30;;;;;;;5.00;2.90;;;;;;;15.03;75.62;98758.09;4445468;32;33484;-85
2023/10/15 04:09:58;;;;;;;6.97;2.90;;;;;;;15.06;74.42;98750.22;4453022;32;34575;-86
2023/10/15 04:12:28;;;;;;;6.00;2.97;;;;;;;15.22;73.70;98756.97;4445360;32;34073;-88
2023/10/15 04:14:56;;;;;;;6.10;3.10;;;;;;;15.12;74.29;98759.75;4437162;32;34045;-86
2023/10/15 04:17:25;;;;;;;6.95;2.92;;;;;;;14.68;75.58;98761.09;4435935;32;33644;-87
2023/10/15 04:19:53;;;;;;;6.30;2.90;;;;;;;15.02;72.35;98757.22;4444491;32;33444;-87
2023/10/15 04:22:21;;;;;;;7.90;2.65;;;;;;;14.93;73.55;98779.97;4452579;32;33801;-87
2023/10/15 04:24:50;;;;;;;6.03;2.45;;;;;;;15.03;72.08;98776.38;4451870;32;34510;-86
2023/10/15 04:27:18;;;;;;;8.43;3.00;;;;;;;14.94;71.44;98784.31;4451782;32;33467;-85
2023/10/15 04:29:55;;;;;;;8.02;2.60;;;;;;;14.87;72.17;98786.12;4452741;32;33792;-86
2023/10/15 04:32:29;;;;;;;6.15;2.35;;;;;;;14.55;73.40;98795.16;4439525;32;34696;-85
2023/10/15 04:35:08;;;;;;;6.45;2.60;;;;;;;14.65;71.35;98800.25;4452594;32;34174;-86
2023/10/15 04:37:36;;;;;;;8.20;2.65;;;;;;;14.39;71.78;98788.28;4451938;32;33263;-85
2023/10/15 04:40:05;;;;;;;7.10;2.90;;;;;;;13.91;73.55;98790.41;4424002;32;34653;-86
2023/10/15 04:42:48;;;;;;;8.82;2.90;;;;;;;13.98;72.58;98779.06;4437865;32;35129;-87
2023/10/15 04:45:20;;;;;;;7.78;2.53;;;;;;;13.55;73.53;98781.91;4434470;32;33616;-85
2023/10/15 04:47:59;;;;;;;6.97;2.75;;;;;;;14.04;71.41;98770.31;4444182;32;33000;-86
2023/10/15 04:50:29;;;;;;;8.07;2.87;;;;;;;14.20;70.68;98776.28;4438666;32;33808;-86
2023/10/15 04:53:12;;;;;;;7.30;2.65;;;;;;;14.16;70.27;98785.88;4450037;32;33946;-87
2023/10/15 04:55:45;;;;;;;6.43;2.72;;;;;;;14.46;69.79;98797.78;4442224;32;33640;-86
2023/10/15 04:58:14;;;;;;;9.15;2.60;;;;;;;14.25;70.78;98816.22;4429955;32;32980;-86
2023/10/15 05:00:47;;;;;;;8.18;2.72;;;;;;;14.58;68.79;98817.69;4436678;32;34503;-86
2023/10/15 05:03:16;;;;;;;6.53;2.62;;;;;;;14.63;68.50;98828.13;4422995;32;34797;-86
2023/10/15 05:05:44;;;;;;;6.47;2.25;;;;;;;14.52;68.90;98847.34;4430568;32;34194;-87
2023/10/15 05:08:13;;;;;;;7.97;2.50;;;;;;;14.58;68.26;98849.91;4428234;32;34355;-85
2023/10/15 05:10:50;;;;;;;7.20;2.15;;;;;;;14.42;67.70;98843.03;4432621;32;33496;-84
2023/10/15 05:13:19;;;;;;;8.50;2.42;;;;;;;14.08;69.49;98845.88;4423578;32;33748;-86
2023/10/15 05:15:47;;;;;;;6.97;2.80;;;;;;;13.93;69.37;98832.06;4451126;32;33682;-85
2023/10/15 05:18:15;;;;;;;7.90;2.60;;;;;;;13.87;69.64;98828.66;4451638;32;33034;-86
2023/10/15 05:20:43;;;;;;;7.03;2.50;;;;;;;14.14;67.79;98833.69;4447066;32;34770;-85
2023/10/15 05:23:11;;;;;;;8.55;2.83;;;;;;;14.03;69.32;98821.59;4436440;32;34466;-87
2023/10/15 05:25:41;;;;;;;5.32;2.50;;;;;;;13.75;69.78;98830.44;4436876;32;33724;-87
2023/10/15 05:28:14;;;;;;;7.22;2.90;;;;;;;13.92;69.44;98832.97;4437866;32;33520;-87
2023/10/15 05:30:42;;;;;;;9.20;3.15;;;;;;;13.99;69.37;98842.47;4434721;32;33710;-86
2023/10/15 05:33:10;;;;;;;8.50;2.60;;;;;;;13.85;69.87;98855.56;4426928;32;33467;-88
2023/10/15 05:35:38;;;;;;;7.93;2.58;;;;;;;13.55;70.76;98875.69;4422007;32;33611;-86
2023/10/15 05:38:09;;;;;;;9.10;2.67;;;;;;;13.60;70.21;98880.91;4443128;32;33087;-87
2023/10/15 05:40:38;;;;;;;6.93;2.55;;;;;;;13.42;70.57;98853.19;4440561;32;33731;-87
2023/10/15 05:43:06;;;;;;;8.30;2.72;;;;;;;13.84;70.41;98872.97;4447712;32;34136;-85
2023/10/15 05:45:33;;;;;;;9.68;2.80;;;;;;;13.76;71.10;98894.72;4438552;32;34785;-86
2023/10/15 05:48:01;;;;;;;6.72;2.60;;;;;;;13.38;70.51;98882.72;4434355;32;34133;-86
2023/10/15 05:50:30;;;;;;;8.70;3.40;;;;;;;13.39;70.40;98881.81;4436419;32;34348;-87
2023/10/15 05:52:57;;;;;;;6.82;3.15;;;;;;;13.31;71.80;98875.78;4445961;32;34155;-87
2023/10/15 05:55:25;;;;;;;10.05;2.65;;;;;;;13.63;70.76;98886.06;4435164;32;34021;-88
2023/10/15 05:57:52;;;;;;;7.78;2.87;;;;;;;13.54;69.34;98900.00;4446278;32;33974;-88
2023/10/15 06:00:26;;;;;;;7.80;2.83;;;;;;;13.29;70.95;98919.16;4435727;32;33989;-88
2023/10/15 06:02:55;;;;;;;8.20;2.65;;;;;;;13.28;71.37;98930.47;4435569;32;34124;-87
2023/10/15 06:05:24;;;;;;;7.03;2.53;;;;;;;13.44;70.34;98919.13;4437236;32;34221;-87
2023/10/15 06:07:54;;;;;;;9.38;3.12;;;;;;;13.14;71.23;98923.53;4437768;32;33489;-88
2023/10/15 06:10:23;;;;;;;9.32;2.70;;;;;;;13.51;70.87;98926.06;4444855;32;34453;-87
2023/10/15 06:12:50;;;;;;;10.57;3.20;;;;;;;13.25;71.32;98930.44;4434459;32;35022;-86
2023/10/15 06:15:18;;;;;;;9.23;3.40;;;;;;;13.45;70.78;98923.47;4447461;32;33185;-87
2023/10/15 06:17:51;;;;;;;11.32;3.58;;;;;;;13.54;70.08;98926.06;4438432;32;33449;-88
2023/10/15 06:20:19;;;;;;;9.80;3.17;;;;;;;13.04;72.58;98924.38;4447732;32;33878;-86
2023/10/15 06:22:48;;;;;;;9.23;2.78;;;;;;;13.04;71.89;98927.00;4451646;32;33736;-85
2023/10/15 06:25:18;;;;;;;7.12;3.47;;;;;;;12.94;71.29;98927.84;4423371;32;34764;-85
2023/10/15 06:27:47;;;;;;;9.80;3.17;;;;;;;13.24;71.07;98918.31;4446427;32;33345;-86
2023/10/15 06:30:16;;;;;;;9.20;2.97;;;;;;;12.83;72.39;98912.25;4435981;32;34675;-88
2023/10/15 06:32:48;;;;;;;8.55;2.75;;;;;;;12.95;71.55;98900.97;4433722;32;34076;-87
2023/10/15 06:35:20;;;;;;;9.80;2.53;;;;;;;12.93;72.51;98905.31;4420390;32;34586;-86
2023/10/15 06:37:49;;;;;;;10.85;3.10;;;;;;;13.29;70.05;98903.53;4435228;32;33339;-87
2023/10/15 06:40:17;;;;;;;10.85;3.22;;;;;;;13.14;71.80;98904.41;4421818;32;32945;-86
2023/10/15 06:42:52;;;;;;;8.68;3.00;;;;;;;13.08;72.57;98905.28;4434627;32;34390;-87
2023/10/15 06:45:20;;;;;;;6.97;2.50;;;;;;;12.76;72.43;98922.66;4422250;32;35001;-87
2023/10/15 06:47:51;;;;;;;8.45;2.90;;;;;;;12.79;72.94;98913.13;4450400;32;34024;-87
2023/10/15 06:50:22;;;;;;;8.23;2.90;;;;;;;12.76;73.16;98920.91;4423483;32;33391;-87
2023/10/15 06:52:53;;;;;;;11.10;3.50;;;;;;;12.67;72.53;98897.53;4435051;32;35022;-88
2023/10/15 06:55:21;;;;;;;8.38;2.97;;;;;;;12.90;72.55;98900.97;4421403;32;33542;-89
2023/10/15 06:57:49;;;;;;;9.38;3.03;;;;;;;12.90;72.06;98900.09;4445382;32;33268;-87
2023/10/15 07:00:21;;;;;;;9.25;2.47;;;;;;;12.78;73.27;98901.00;4435657;32;34011;-88
2023/10/15 07:02:50;;;;;;;8.25;3.05;;;;;;;12.77;72.89;98891.47;4439895;32;34495;-88
2023/10/15 07:05:23;;;;;;;12.48;3.03;;;;;;;12.43;74.36;98881.94;4422424;32;34822;-89
2023/10/15 07:07:51;;;;;;;9.15;3.42;;;;;;;12.52;72.70;98885.38;4414180;32;32078;-87
2023/10/15 07:10:21;;;;;;;7.43;2.85;;;;;;;12.81;71.87;98877.56;4432040;32;33520;-88
2023/10/15 07:12:52;;;;;;;10.02;3.22;;;;;;;12.99;70.82;98884.47;4435390;32;34024;-88
2023/10/15 07:15:20;;;;;;;10.07;2.90;;;;;;;12.83;71.44;98891.44;4435708;32;34220;-89
2023/10/15 07:17:50;;;;;;;6.53;2.62;;;;;;;12.58;72.39;98927.00;4431493;32;33455;-88
2023/10/15 07:20:18;;;;;;;9.48;2.85;;;;;;;12.57;72.03;98956.44;4440186;32;34797;-87
2023/10/15 07:22:51;;;;;;;7.55;2.60;;;;;;;12.55;71.63;98954.72;4440211;32;34874;-88
2023/10/15 07:25:19;;;;;;;7.43;2.40;;;;;;;12.77;71.45;98971.22;4439870;32;33730;-89
2023/10/15 07:27:48;;;;;;;8.32;2.67;;;;;;;13.03;70.33;98974.72;4446214;32;34095;-89
2023/10/15 07:30:19;;;;;;;8.90;2.67;;;;;;;12.86;70.19;98981.63;4436402;32;34622;-92
2023/10/15 07:32:58;;;;;;;7.75;2.53;;;;;;;12.95;70.17;98976.41;4411341;32;33665;-89
2023/10/15 07:35:30;;;;;;;8.73;2.35;;;;;;;12.69;69.38;98986.84;4431517;32;33660;-89
2023/10/15 07:38:02;;;;;;;8.07;2.90;;;;;;;12.89;69.90;98986.84;4430118;32;34041;-91
2023/10/15 07:40:32;;;;;;;10.27;2.83;;;;;;;13.25;68.50;98991.19;4437152;32;34646;-88
2023/10/15 07:43:02;;;;;;;17.30;2.80;;;;;;;12.84;70.07;98991.16;4451801;32;33665;-96
2023/10/15 07:45:33;;;;;;;7.40;2.37;;;;;;;13.08;68.95;98969.50;4437022;32;34015;-94
2023/10/15 07:48:03;;;;;;;6.57;2.22;;;;;;;13.08;69.94;98969.50;4437712;32;32938;-95
2023/10/15 07:50:34;;;;;;;12.18;2.60;;;;;;;12.70;71.12;98982.50;4431376;32;33547;-94
2023/10/15 07:53:03;;;;;;;9.30;2.80;;;;;;;12.96;69.67;98974.72;4445878;32;34313;-90
2023/10/15 07:55:32;;;;;;;9.93;3.15;;;;;;;13.10;68.69;98966.00;4449493;32;34177;-96
2023/10/15 07:58:00;;;;;;;11.02;2.95;;;;;;;12.89;70.33;98971.22;4431931;32;33486;-96
2023/10/15 08:00:33;;;;;;;10.43;2.83;;;;;;;12.83;69.70;98963.41;4451063;32;34180;-90
2023/10/15 08:03:02;;;;;;;10.32;2.72;;;;;;;13.21;70.18;98962.53;4449434;32;35486;-92
2023/10/15 08:05:32;;;;;;;8.07;3.03;;;;;;;13.28;70.10;98969.50;4448942;32;33178;-95
2023/10/15 08:08:03;;;;;;;7.60;2.62;;;;;;;13.54;68.67;98952.09;4433888;32;33483;-95
2023/10/15 08:10:34;;;;;;;9.20;2.67;;;;;;;13.51;68.81;98944.28;4444625;32;34798;-96
2023/10/15 08:13:04;;;;;;;8.18;3.08;;;;;;;13.83;68.06;98952.00;4435856;32;34562;-96
2023/10/15 08:15:38;;;;;;;7.22;2.72;;;;;;;13.67;68.05;98968.53;4439180;32;33557;-93
2023/10/15 08:18:06;;;;;;;12.45;3.15;;;;;;;13.83;67.30;98970.25;4437856;32;33206;-96
2023/10/15 08:20:34;;;;;;;8.55;2.92;;;;;;;13.61;68.18;98972.03;4436305;32;33704;-96
2023/10/15 08:23:02;;;;;;;8.68;2.30;;;;;;;13.91;67.31;98970.22;4455647;32;34052;-96
2023/10/15 08:25:34;;;;;;;11.32;2.70;;;;;;;13.64;66.87;98960.75;4458823;32;33717;-96
2023/10/15 08:28:02;;;;;;;8.02;2.75;;;;;;;13.87;66.59;98960.69;4420834;32;33601;-96
2023/10/15 08:30:36;;;;;;;7.10;2.75;;;;;;;13.57;66.23;98957.31;4436962;32;35050;-96
2023/10/15 08:33:10;;;;;;;11.77;2.87;;;;;;;13.55;66.09;98958.16;4458831;32;34481;-90
2023/10/15 08:35:40;;;;;;;9.35;2.45;;;;;;;13.97;65.27;98951.94;4453726;32;34242;-93
2023/10/15 08:38:09;;;;;;;9.60;2.47;;;;;;;13.44;65.78;98958.19;4458607;32;33651;-86
2023/10/15 08:40:41;;;;;;;8.00;2.53;;;;;;;13.13;66.01;98966.00;4433590;32;33528;-95
2023/10/15 08:43:13;;;;;;;8.30;2.67;;;;;;;13.09;66.62;98969.47;4440059;32;33795;-85
2023/10/15 08:45:43;;;;;;;10.30;2.33;;;;;;;13.56;65.32;98978.13;4435895;32;34701;-88
2023/10/15 08:48:12;;;;;;;6.68;2.35;;;;;;;13.65;65.76;98965.09;4460502;32;33424;-94
2023/10/15 08:50:40;;;;;;;9.93;2.67;;;;;;;13.69;64.83;98972.03;4448883;32;33604;-86
2023/10/15 08:53:08;;;;;;;9.57;2.50;;;;;;;13.65;65.29;98974.66;4458284;32;33800;-88
2023/10/15 08:55:36;;;;;;;7.03;2.37;;;;;;;13.67;64.73;98978.97;4431985;32;33816;-94
2023/10/15 08:58:06;;;;;;;9.20;2.40;;;;;;;13.19;65.28;98974.69;4438045;32;33468;-91
2023/10/15 09:00:36;;;;;;;8.32;2.37;;;;;;;13.53;64.15;98979.00;4428444;32;33134;-85
2023/10/15 09:03:04;;;;;;;8.80;2.72;;;;;;;13.66;63.74;98965.94;4451571;32;32930;-87
2023/10/15 09:05:33;;;;;;;10.25;2.70;;;;;;;13.90;63.44;98965.00;4449966;32;34291;-87
2023/10/15 09:08:12;;;;;;;9.43;2.87;;;;;;;13.84;63.91;98958.09;4429437;32;33217;-87
2023/10/15 09:10:40;;;;;;;8.82;2.87;;;;;;;13.79;63.56;98954.63;4431767;32;33471;-86
2023/10/15 09:13:18;;;;;;;8.68;2.78;;;;;;;14.08;62.85;98952.75;4428243;32;34226;-92
2023/10/15 09:15:52;;;;;;;11.95;2.70;;;;;;;13.95;62.93;98948.47;4434981;32;33699;-88
2023/10/15 09:18:20;;;;;;;9.25;2.92;;;;;;;13.48;62.49;98946.88;4450879;32;33174;-92
2023/10/15 09:20:59;;;;;;;8.95;2.53;;;;;;;13.91;62.15;98944.16;4449423;32;34528;-89
2023/10/15 09:23:37;;;;;;;9.40;2.53;;;;;;;14.14;63.02;98951.88;4451825;32;33958;-92
2023/10/15 09:26:07;;;;;;;11.30;2.70;;;;;;;14.31;61.81;98960.44;4439041;32;33912;-95
2023/10/15 09:28:35;;;;;;;8.95;2.83;;;;;;;14.15;60.92;98970.97;4452717;32;33954;-94
2023/10/15 09:31:09;;;;;;;8.10;2.53;;;;;;;13.88;62.85;98970.22;4434687;32;32775;-85
2023/10/15 09:33:38;;;;;;;10.77;2.75;;;;;;;14.07;61.15;98971.87;4437932;32;34978;-93
2023/10/15 09:36:07;;;;;;;10.68;3.12;;;;;;;13.61;61.21;98963.38;4448789;32;34567;-86
2023/10/15 09:38:39;;;;;;;8.52;2.62;;;;;;;14.24;58.49;98950.06;4436063;32;33268;-89
2023/10/15 09:41:06;;;;;;;9.20;2.72;;;;;;;13.82;59.79;98952.00;4437287;32;33354;-95
2023/10/15 09:43:40;;;;;;;9.75;2.42;;;;;;;13.36;61.07;98950.38;4437585;32;34088;-94
2023/10/15 09:46:07;;;;;;;9.13;2.72;;;;;;;13.83;60.61;98958.97;4424935;32;32508;-93
2023/10/15 09:48:36;;;;;;;10.75;2.95;;;;;;;13.73;60.17;98965.06;4432469;32;33705;-94
2023/10/15 09:51:07;;;;;;;8.80;3.22;;;;;;;13.63;59.47;98975.50;4421385;32;33806;-88
2023/10/15 09:53:41;;;;;;;11.70;2.90;;;;;;;13.28;61.18;98980.78;4430021;32;35224;-91
2023/10/15 09:56:12;;;;;;;9.20;2.47;;;;;;;13.55;61.33;98985.06;4419698;32;33506;-86
2023/10/15 09:58:42;;;;;;;7.87;3.00;;;;;;;13.79;60.06;98980.69;4411359;32;33544;-93
2023/10/15 10:01:25;;;;;;;10.48;4.45;;;;;;;13.83;59.93;98990.22;4423444;32;34675;-90
2023/10/15 10:04:14;;;;;;;7.00;2.28;;;;;;;13.94;59.76;98988.47;4430960;32;33725;-85
2023/10/15 10:07:11;;;;;;;10.25;2.58;;;;;;;13.75;58.85;98991.97;4423852;32;34091;-86
2023/10/15 10:09:48;;;;;;;20.50;8.57;;;;;;;13.93;59.17;98985.84;4427145;32;34535;-93
2023/10/15 10:12:36;;;;;;;10.07;5.05;;;;;;;13.89;58.77;98984.97;4425425;32;34709;-91
2023/10/15 10:15:15;;;;;;;10.27;3.25;;;;;;;14.12;58.30;98987.50;4421171;32;34093;-90
2023/10/15 10:17:43;;;;;;;10.98;2.70;;;;;;;13.97;58.12;98988.41;4406926;32;33464;-90
2023/10/15 10:20:13;;;;;;;11.57;3.00;;;;;;;14.14;57.70;98990.97;4418394;32;34127;-92
2023/10/15 10:22:41;;;;;;;9.88;2.78;;;;;;;14.18;57.32;98991.84;4407715;32;34293;-93
2023/10/15 10:25:35;;;;;;;7.82;2.90;;;;;;;14.10;56.83;98991.88;4422669;32;34613;-89
2023/10/15 10:28:13;;;;;;;7.78;2.58;;;;;;;14.31;56.89;98988.28;4404086;32;32826;-94
2023/10/15 10:30:58;;;;;;;9.15;2.62;;;;;;;14.15;57.81;98987.50;4445255;32;32881;-93
2023/10/15 10:34:03;;;;;;;7.75;2.65;;;;;;;14.21;55.57;98981.41;4421745;32;33836;-91
2023/10/15 10:36:36;;;;;;;9.27;3.70;;;;;;;14.16;55.20;98984.00;4400388;32;34272;-89
2023/10/15 10:39:07;;;;;;;8.05;2.67;;;;;;;14.29;55.19;98985.69;4428956;32;33060;-87
2023/10/15 10:41:41;;;;;;;8.15;2.45;;;;;;;14.19;54.23;98988.34;4436787;32;33144;-91
2023/10/15 10:44:12;;;;;;;8.30;2.28;;;;;;;14.35;54.09;98984.78;4429677;32;33806;-95
2023/10/15 10:46:53;;;;;;;7.05;2.67;;;;;;;13.85;55.88;98988.47;4428179;32;34543;-92
2023/10/15 10:49:34;;;;;;;10.70;2.42;;;;;;;14.09;56.32;98991.00;4419863;32;32643;-87
2023/10/15 10:52:17;;;;;;;6.97;2.35;;;;;;;14.35;55.01;98983.03;4429550;32;34129;-91
2023/10/15 10:54:46;;;;;;;8.38;2.80;;;;;;;14.18;54.74;98986.63;4425987;32;33414;-91
2023/10/15 10:57:18;;;;;;;9.43;2.35;;;;;;;14.43;54.31;98990.81;4428956;32;34867;-93
2023/10/15 10:59:46;;;;;;;9.93;2.58;;;;;;;14.04;55.10;98991.88;4415314;32;33276;-91
2023/10/15 11:02:14;;;;;;;8.38;2.45;;;;;;;14.07;55.90;98991.88;4446347;32;33388;-87
2023/10/15 11:04:42;;;;;;;7.62;2.17;;;;;;;13.96;55.18;98988.44;4428594;32;33948;-85
2023/10/15 11:07:11;;;;;;;12.88;2.78;;;;;;;14.11;55.53;98990.97;4445126;32;33245;-86
2023/10/15 11:09:39;;;;;;;7.93;2.42;;;;;;;13.53;56.15;99001.59;4433327;32;33382;-89
2023/10/15 11:12:09;;;;;;;8.32;2.67;;;;;;;14.31;53.87;98998.69;4448904;32;34388;-85
2023/10/15 11:14:37;;;;;;;10.43;3.33;;;;;;;14.26;55.72;98995.25;4427923;32;33832;-92
2023/10/15 11:17:05;;;;;;;9.75;2.50;;;;;;;13.76;55.50;98993.72;4429850;32;34226;-91
2023/10/15 11:19:33;;;;;;;12.85;3.80;;;;;;;13.53;54.97;98989.44;4419998;32;33187;-89
2023/10/15 11:22:01;;;;;;;8.50;4.32;;;;;;;14.17;53.58;98988.37;4444332;32;32999;-89
2023/10/15 11:24:29;;;;;;;10.65;3.47;;;;;;;14.06;54.17;98983.19;4444271;32;33803;-94
2023/10/15 11:26:58;;;;;;;11.00;3.37;;;;;;;14.45;53.89;98983.00;4443631;32;34315;-91
2023/10/15 11:29:26;;;;;;;7.97;3.22;;;;;;;14.28;54.97;98985.69;4445007;32;33863;-90
2023/10/15 11:31:58;;;;;;;9.70;3.20;;;;;;;14.24;54.04;98992.66;4429361;32;33529;-89
2023/10/15 11:34:28;;;;;;;7.50;2.45;;;;;;;14.65;52.80;98982.91;4430981;32;34674;-91
2023/10/15 11:36:56;;;;;;;9.18;2.55;;;;;;;14.80;53.37;98985.41;4444398;32;34038;-90
2023/10/15 11:39:38;;;;;;;8.57;2.40;;;;;;;14.63;54.92;98987.28;4443234;32;33164;-87
2023/10/15 11:42:07;;;;;;;8.18;2.55;;;;;;;14.36;53.49;98996.97;4426685;32;34001;-93
2023/10/15 11:44:44;;;;;;;10.32;2.65;;;;;;;14.37;52.73;98998.69;4436388;32;33922;-87
2023/10/15 11:47:16;;;;;;;8.48;2.55;;;;;;;14.42;53.42;98999.50;4435091;32;33784;-87
2023/10/15 11:49:45;;;;;;;12.23;2.87;;;;;;;14.24;53.43;98994.37;4440393;32;33824;-91
2023/10/15 11:52:14;;;;;;;9.52;2.83;;;;;;;14.43;53.14;98985.59;4437742;32;33695;-90
2023/10/15 11:54:43;;;;;;;10.90;2.58;;;;;;;14.40;53.85;98983.03;4425143;32;33586;-96
2023/10/15 11:57:39;;;;;;;6.68;2.12;;;;;;;14.56;53.54;98976.88;4439472;32;33820;-88
2023/10/15 12:00:09;;;;;;;9.52;2.47;;;;;;;14.55;52.06;98975.13;4445478;32;34295;-87
2023/10/15 12:02:38;;;;;;;7.07;2.15;;;;;;;14.32;53.36;98985.69;4441860;32;32728;-87
2023/10/15 12:05:09;;;;;;;7.62;2.35;;;;;;;14.66;51.51;98968.97;4439329;32;33492;-91
2023/10/15 12:07:37;;;;;;;11.88;2.75;;;;;;;14.33;52.22;98968.28;4452933;32;33981;-88
2023/10/15 12:10:14;;;;;;;11.93;2.83;;;;;;;14.42;51.90;98978.66;4453168;32;34436;-89
2023/10/15 12:12:42;;;;;;;9.95;2.30;;;;;;;14.22;52.20;98991.81;4453593;32;33948;-92
2023/10/15 12:15:10;;;;;;;8.98;2.30;;;;;;;14.38;51.53;98987.37;4427412;32;32601;-89